Αναφορές METAR Αεροδρομίων

 

LGTS - THESSALONIKI - GREECE
Ενημερώθηκε: 22/09/2021 01:50
Αραιές Νεφώσεις
Αραιές Νεφώσεις
 Ανεμος από ΝΝΑ
Ανεμος: ΝΝΑ 9 km/h
Θερμοκρασία: 21°C
Σημ. Δρόσου: 17°C
Υγρασία: 78%
Βαρόμετρο: 1019 hPa
Clouds: Αραιές Νεφώσεις
Visibility: 10 km
Cloud details: Αραιές Νεφώσεις 762 m
2021/09/21 22:50 LGTS 212250Z 16005KT 9999 FEW025 21/17 Q1019 NOSIG
LGLR - LARTISA - GREECE
Ενημερώθηκε: 22/09/2021 01:50
Μερικώς νεφελώδης
Μερικώς νεφελώδης
 Ανεμος από Α
Ανεμος: Α 7 km/h
Θερμοκρασία: 21°C
Σημ. Δρόσου: 17°C
Υγρασία: 78%
Βαρόμετρο: 1018 hPa
Clouds: Μερικώς νεφελώδης
Visibility: 10 km
Cloud details: Αραιές Νεφώσεις 1219 m
Μερικώς νεφελώδης 2438 m
2021/09/21 22:50 LGLR 212250Z 09004KT 9999 FEW040 SCT080 21/17 Q1018 BLU
 
LGKZ - KOZANI - GREECE
Ενημερώθηκε: 22/09/2021 01:50

 Ανεμος από Β
Ανεμος: Β 15 km/h
Θερμοκρασία: 17°C
Σημ. Δρόσου: 6°C
Υγρασία: 49%
Βαρόμετρο: 1021 hPa
2021/09/21 22:50 LGKZ 212250Z AUTO 01008KT 310V040 //// // ////// 17/06 Q1021 RE//
LGKV - KAVALA - GREECE
Ενημερώθηκε: 21/09/2021 23:20
NOT Current
Αραιές Νεφώσεις
Αραιές Νεφώσεις
 Ανεμος από ΒΑ
Ανεμος: ΒΑ 9 km/h
Θερμοκρασία: 20°C
Σημ. Δρόσου: 15°C
Υγρασία: 73%
Βαρόμετρο: 1018 hPa
Clouds: Αραιές Νεφώσεις
Visibility: 10 km
Cloud details: Αραιές Νεφώσεις 762 m
2021/09/21 20:20 LGKV 212020Z 04005KT 9999 FEW025 20/15 Q1018
 
LGIO - IOANNINA - GREECE
Ενημερώθηκε: 22/09/2021 01:50

 Ανεμος από varies
Ανεμος: varies 4 km/h
Θερμοκρασία: 14°C
Σημ. Δρόσου: 13°C
Υγρασία: 94%
Βαρόμετρο: 1020 hPa
2021/09/21 22:50 LGIO 212250Z AUTO VRB02KT //// // ////// 14/13 Q1020 RE//
LGBL - BOLOS - GREECE
Ενημερώθηκε: 22/09/2021 01:50
Σχεδόν νεφελώδης
Σχεδόν νεφελώδης
 Ανεμος από varies
Ανεμος: varies 4 km/h
Θερμοκρασία: 21°C
Σημ. Δρόσου: 17°C
Υγρασία: 78%
Βαρόμετρο: 1018 hPa
Clouds: Σχεδόν νεφελώδης
Visibility: 10 km
Cloud details: Μερικώς νεφελώδης 914 m
Σχεδόν νεφελώδης 2438 m
2021/09/21 22:50 LGBL 212250Z VRB02KT 9999 SCT030 BKN080 21/17 Q1018
 
LGMT - MITILINI - GREECE
Ενημερώθηκε: 21/09/2021 23:50
NOT Current
Αίθριος
Αίθριος
 Ανεμος από varies
Ανεμος: varies 6 km/h
Θερμοκρασία: 21°C
Σημ. Δρόσου: 16°C
Υγρασία: 73%
Βαρόμετρο: 1017 hPa
Περίληψη: Αίθριος
Visibility: greater than 10 km
2021/09/21 20:50 LGMT 212050Z VRB03KT CAVOK 21/16 Q1017
LGAV - ATHENS - GREECE
Ενημερώθηκε: 22/09/2021 02:20
Αίθριος
Αίθριος
 Ανεμος από varies
Ανεμος: varies 2 km/h
Θερμοκρασία: 20°C
Σημ. Δρόσου: 16°C
Υγρασία: 78%
Βαρόμετρο: 1017 hPa
Περίληψη: Αίθριος
Visibility: greater than 10 km
2021/09/21 23:20 LGAV 212320Z VRB01KT CAVOK 20/16 Q1017 NOSIG
 
LGRP - RODOS - GREECE
Ενημερώθηκε: 22/09/2021 01:50
Αραιές Νεφώσεις
Αραιές Νεφώσεις
 Ανεμος από ΒΔ
Ανεμος: ΒΔ 19 km/h
Θερμοκρασία: 27°C
Δείκτης θερμότητας: 28°C
Σημ. Δρόσου: 18°C
Υγρασία: 58%
Βαρόμετρο: 1013 hPa
Clouds: Αραιές Νεφώσεις
Visibility: 10 km
Cloud details: Αραιές Νεφώσεις 549 m
2021/09/21 22:50 LGRP 212250Z 31010KT 9999 FEW018 27/18 Q1013 NOSIG
LGIR - HRAKLIO/KRITI - GREECE
Ενημερώθηκε: 22/09/2021 02:20
Αίθριος
Αίθριος
 Ανεμος από Ν
Ανεμος: Ν 7 km/h
Θερμοκρασία: 21°C
Σημ. Δρόσου: 20°C
Υγρασία: 94%
Βαρόμετρο: 1015 hPa
Περίληψη: Αίθριος
Visibility: greater than 10 km
2021/09/21 23:20 LGIR 212320Z 18004KT CAVOK 21/20 Q1015 NOSIG
 
LGMK - MIKONOS - GREECE
Ενημερώθηκε: 21/09/2021 23:50
NOT Current
Αίθριος
Αίθριος
 Ανεμος από ΒΒΑ
Ανεμος: ΒΒΑ 19 km/h
Θερμοκρασία: 23°C
Σημ. Δρόσου: 16°C
Υγρασία: 65%
Βαρόμετρο: 1016 hPa
Περίληψη: Αίθριος
Visibility: greater than 10 km
2021/09/21 20:50 LGMK 212050Z 02010KT CAVOK 23/16 Q1016
LGKR - KERKIRA - GREECE
Ενημερώθηκε: 22/09/2021 02:20
Αραιές Νεφώσεις
Αραιές Νεφώσεις
 Ανεμος από ΝΝΔ
Ανεμος: ΝΝΔ 6 km/h
Θερμοκρασία: 21°C
Σημ. Δρόσου: 15°C
Υγρασία: 69%
Βαρόμετρο: 1018 hPa
Clouds: Αραιές Νεφώσεις
Visibility: 10 km
Cloud details: Αραιές Νεφώσεις 610 m
2021/09/21 23:20 LGKR 212320Z 21003KT 9999 FEW020 21/15 Q1018 NOSIG